Tropical Cyclones
[Index]
Main Index Home Page Stock Weather Photos Extreme Storms Discussion Storm News and Storm Chasing Reports Tropical Cyclones / Hurricanes / Typhoons Weather Data and Links Wild Fires / Bushfires Weather Observation Techniques Weather Picture Catalogue Tornado Pictures and Reports Stock Video Footage and DVDs for sale
Season 1967-1968 Tropical Cyclone DOREEN Track Map
Season 1967-1968 Summaries: [BoM-AU] [JTWC-AU] [JTWC-SIO] [JTWC-SPAC] [JTWC-SH]
<<- Previous TC | BoM 1967-1968 Season | Next TC ->>

click for intensity scale information  Lat/long Grid: Show Hide

 Date Labels: Show Hide

Bureau of Meteorology Tropical Cyclone Data

Name: DOREEN
Number: 429 / 196768_08

19 Jan 1968 07:00 UTC to 24 Jan 1968 01:00 UTC

    date/time    lat    long    hPa   cat  kts
1968-01-19 07    7.0    97.0   1003                     
1968-01-19 10    7.2    97.0   1001                     
1968-01-19 16    7.7    97.0    997                     
1968-01-19 19    8.0    97.0    996                     
1968-01-19 22    8.2    97.0    995    1                
1968-01-20 01    8.5    97.0    994    1                
1968-01-20 04    8.7    97.0    992    1                
1968-01-20 07    9.0    97.0    990    1                
1968-01-20 10    9.3    97.0    988    1                
1968-01-20 16   10.0    97.0    983    2                
1968-01-20 19   10.4    97.0    980    2                
1968-01-20 22   10.8    97.0    977    2                
1968-01-21 01   11.2    97.0    975    2                
1968-01-21 04   11.6    97.0    972    2                
1968-01-21 07   12.0    97.0    970    3                
1968-01-21 10   12.3    96.8    970    3                
1968-01-21 16   13.0    96.6    971    2                
1968-01-21 19   13.4    96.5    973    2                
1968-01-21 22   13.8    96.4    975    2                
1968-01-22 01   14.2    96.3    976    2                
1968-01-22 04   14.6    96.2    978    2                
1968-01-22 07   15.0    96.0    980    2                
1968-01-22 10   15.3    95.7    982    2                
1968-01-22 16   15.8    95.2    983    2                
1968-01-22 19   16.0    95.0    984    2                
1968-01-22 22   16.3    94.7    985    2                
1968-01-23 01   16.5    94.5    987    1                
1968-01-23 04   16.8    94.2    989    1                
1968-01-23 07   17.0    94.0    990    1                
1968-01-23 10   17.3    93.7    992    1                
1968-01-23 16   18.0    93.1    996                     
1968-01-23 22   18.7    92.3   1000                     
1968-01-24 01   19.0    92.0   1002                     
Winds are 10-min average.

Tropical cyclone tracks developed by Michael Bath using data from the Bureau of Meteorology and Google Maps.


[Australian Severe Weather index] [Copyright Notice] [Email Contacts] [Search This Site] [Privacy Policy]
Document: tropical_cyclone_doreen.htm Updated: 30 May 2013